CheckWX is a tool to help pilots better visualize weather data.  It is not intended as a substitute for an official pre-flight weather briefing.

13:37:32 UTC

VOBM TAF
Belgaum Airport
Belgaum, India
TAF VOBM 240800Z 2409/2418 29005KT 6000 SCT015 TEMPO 2409/2415 4000 TSRA RA SCT015 SCT020 FEW025CB

May-24@
09:00 UTC

May-24 @ 09:00 UTC

May-24@
18:00 UTC

May-24 @ 18:00 UTC

TAF VOBM 240800Z 2409/2418 29005KT 6000 SCT015
Wind
  • 290° at 5 KTS
Cloud Levels
  • Scattered at 1,500' AGL

May-24@
09:00 UTC

May-24 @ 09:00 UTC

May-24@
15:00 UTC

May-24 @ 15:00 UTC

TEMPO 2409/2415 4000 TSRA RA SCT015 SCT020 FEW025CB

Temporary

Temporary Changes expected for less than half the time period

Conditions
Thunderstorm, Rain, Rain
Cloud Levels
  • Scattered at 1,500' AGL
  • Scattered at 2,000' AGL
  • Few at 2,500' AGL